sensor_id;sensor_type;location;lat;lon;timestamp;P1;durP1;ratioP1;P2;durP2;ratioP2
2362;SDS011;64265;51.664;7.626;2023-02-21T00:02:30;4.40;;;4.10;;
2362;SDS011;64265;51.664;7.626;2023-02-21T00:05:14;5.32;;;4.82;;
2362;SDS011;64265;51.664;7.626;2023-02-21T00:07:58;5.30;;;4.80;;
2362;SDS011;64265;51.664;7.626;2023-02-21T00:10:42;5.95;;;4.03;;
2362;SDS011;64265;51.664;7.626;2023-02-21T00:13:28;5.28;;;4.78;;
2362;SDS011;64265;51.664;7.626;2023-02-21T00:16:13;6.00;;;4.25;;
2362;SDS011;64265;51.664;7.626;2023-02-21T00:18:58;5.43;;;4.93;;
2362;SDS011;64265;51.664;7.626;2023-02-21T00:21:45;5.55;;;5.00;;
2362;SDS011;64265;51.664;7.626;2023-02-21T00:24:29;5.60;;;5.18;;
2362;SDS011;64265;51.664;7.626;2023-02-21T00:27:13;7.05;;;5.70;;
2362;SDS011;64265;51.664;7.626;2023-02-21T00:29:59;4.55;;;4.20;;
2362;SDS011;64265;51.664;7.626;2023-02-21T00:32:43;4.30;;;4.00;;
2362;SDS011;64265;51.664;7.626;2023-02-21T00:35:27;4.40;;;4.00;;
2362;SDS011;64265;51.664;7.626;2023-02-21T00:38:11;3.80;;;3.50;;
2362;SDS011;64265;51.664;7.626;2023-02-21T00:40:56;5.53;;;4.47;;
2362;SDS011;64265;51.664;7.626;2023-02-21T00:43:40;5.20;;;4.72;;
2362;SDS011;64265;51.664;7.626;2023-02-21T00:46:25;5.53;;;4.97;;
2362;SDS011;64265;51.664;7.626;2023-02-21T00:49:09;5.43;;;4.93;;
2362;SDS011;64265;51.664;7.626;2023-02-21T00:51:54;5.00;;;4.50;;
2362;SDS011;64265;51.664;7.626;2023-02-21T00:54:38;5.63;;;5.22;;
2362;SDS011;64265;51.664;7.626;2023-02-21T00:57:22;4.47;;;4.07;;
2362;SDS011;64265;51.664;7.626;2023-02-21T01:00:08;5.28;;;4.85;;
2362;SDS011;64265;51.664;7.626;2023-02-21T01:02:59;4.90;;;4.40;;
2362;SDS011;64265;51.664;7.626;2023-02-21T01:05:43;5.88;;;5.35;;
2362;SDS011;64265;51.664;7.626;2023-02-21T01:08:27;5.28;;;4.80;;
2362;SDS011;64265;51.664;7.626;2023-02-21T01:11:13;4.80;;;4.40;;
2362;SDS011;64265;51.664;7.626;2023-02-21T01:13:57;6.57;;;4.28;;
2362;SDS011;64265;51.664;7.626;2023-02-21T01:16:42;5.30;;;4.53;;
2362;SDS011;64265;51.664;7.626;2023-02-21T01:19:27;4.45;;;4.15;;
2362;SDS011;64265;51.664;7.626;2023-02-21T01:22:11;5.05;;;4.65;;
2362;SDS011;64265;51.664;7.626;2023-02-21T01:24:55;4.65;;;4.35;;
2362;SDS011;64265;51.664;7.626;2023-02-21T01:27:39;4.90;;;4.50;;
2362;SDS011;64265;51.664;7.626;2023-02-21T01:30:23;5.60;;;5.10;;
2362;SDS011;64265;51.664;7.626;2023-02-21T01:33:07;4.60;;;4.25;;
2362;SDS011;64265;51.664;7.626;2023-02-21T01:35:54;5.13;;;4.72;;
2362;SDS011;64265;51.664;7.626;2023-02-21T01:38:38;4.10;;;3.80;;
2362;SDS011;64265;51.664;7.626;2023-02-21T01:41:22;5.15;;;4.65;;
2362;SDS011;64265;51.664;7.626;2023-02-21T01:44:27;5.88;;;4.35;;
2362;SDS011;64265;51.664;7.626;2023-02-21T01:47:16;5.00;;;4.60;;
2362;SDS011;64265;51.664;7.626;2023-02-21T01:50:01;4.55;;;4.18;;
2362;SDS011;64265;51.664;7.626;2023-02-21T01:52:50;4.18;;;3.80;;
2362;SDS011;64265;51.664;7.626;2023-02-21T01:55:35;5.30;;;4.80;;
2362;SDS011;64265;51.664;7.626;2023-02-21T01:58:23;8.65;;;4.55;;
2362;SDS011;64265;51.664;7.626;2023-02-21T02:01:09;5.00;;;4.60;;
2362;SDS011;64265;51.664;7.626;2023-02-21T02:03:59;3.83;;;3.53;;
2362;SDS011;64265;51.664;7.626;2023-02-21T02:06:44;4.82;;;4.43;;
2362;SDS011;64265;51.664;7.626;2023-02-21T02:09:30;4.18;;;3.88;;
2362;SDS011;64265;51.664;7.626;2023-02-21T02:12:18;4.75;;;4.35;;
2362;SDS011;64265;51.664;7.626;2023-02-21T02:18:20;4.32;;;4.03;;
2362;SDS011;64265;51.664;7.626;2023-02-21T02:24:15;4.72;;;4.38;;
2362;SDS011;64265;51.664;7.626;2023-02-21T02:27:24;4.15;;;3.85;;
2362;SDS011;64265;51.664;7.626;2023-02-21T02:30:30;4.70;;;4.40;;
2362;SDS011;64265;51.664;7.626;2023-02-21T02:33:30;3.72;;;3.53;;
2362;SDS011;64265;51.664;7.626;2023-02-21T02:36:24;4.85;;;4.45;;
2362;SDS011;64265;51.664;7.626;2023-02-21T02:38:57;4.00;;;3.70;;
2362;SDS011;64265;51.664;7.626;2023-02-21T02:41:32;4.30;;;3.90;;
2362;SDS011;64265;51.664;7.626;2023-02-21T02:44:11;4.25;;;3.95;;
2362;SDS011;64265;51.664;7.626;2023-02-21T02:46:40;4.53;;;4.22;;
2362;SDS011;64265;51.664;7.626;2023-02-21T02:49:11;4.60;;;4.30;;
2362;SDS011;64265;51.664;7.626;2023-02-21T02:51:43;3.75;;;3.45;;
2362;SDS011;64265;51.664;7.626;2023-02-21T02:54:09;4.70;;;4.30;;
2362;SDS011;64265;51.664;7.626;2023-02-21T02:56:36;4.60;;;4.20;;
2362;SDS011;64265;51.664;7.626;2023-02-21T02:59:04;4.85;;;4.45;;
2362;SDS011;64265;51.664;7.626;2023-02-21T03:01:48;3.75;;;3.50;;
2362;SDS011;64265;51.664;7.626;2023-02-21T03:04:40;3.72;;;3.42;;
2362;SDS011;64265;51.664;7.626;2023-02-21T03:07:21;4.55;;;4.25;;
2362;SDS011;64265;51.664;7.626;2023-02-21T03:10:06;4.88;;;4.57;;
2362;SDS011;64265;51.664;7.626;2023-02-21T03:12:40;4.55;;;4.22;;
2362;SDS011;64265;51.664;7.626;2023-02-21T03:15:14;5.05;;;4.57;;
2362;SDS011;64265;51.664;7.626;2023-02-21T03:17:45;4.47;;;4.07;;
2362;SDS011;64265;51.664;7.626;2023-02-21T03:20:19;4.20;;;3.80;;
2362;SDS011;64265;51.664;7.626;2023-02-21T03:22:48;4.45;;;4.15;;
2362;SDS011;64265;51.664;7.626;2023-02-21T03:25:17;4.32;;;4.03;;
2362;SDS011;64265;51.664;7.626;2023-02-21T03:27:45;3.95;;;3.65;;
2362;SDS011;64265;51.664;7.626;2023-02-21T03:30:13;4.47;;;4.15;;
2362;SDS011;64265;51.664;7.626;2023-02-21T03:32:41;4.57;;;4.18;;
2362;SDS011;64265;51.664;7.626;2023-02-21T03:35:11;4.25;;;3.95;;
2362;SDS011;64265;51.664;7.626;2023-02-21T03:37:38;4.60;;;4.20;;
2362;SDS011;64265;51.664;7.626;2023-02-21T03:40:09;4.03;;;3.72;;
2362;SDS011;64265;51.664;7.626;2023-02-21T03:42:38;4.32;;;4.00;;
2362;SDS011;64265;51.664;7.626;2023-02-21T03:45:05;4.55;;;4.20;;
2362;SDS011;64265;51.664;7.626;2023-02-21T03:47:32;4.07;;;3.78;;
2362;SDS011;64265;51.664;7.626;2023-02-21T03:49:59;3.65;;;3.45;;
2362;SDS011;64265;51.664;7.626;2023-02-21T03:52:26;4.55;;;4.22;;
2362;SDS011;64265;51.664;7.626;2023-02-21T03:54:53;4.00;;;3.70;;
2362;SDS011;64265;51.664;7.626;2023-02-21T03:57:21;4.20;;;3.80;;
2362;SDS011;64265;51.664;7.626;2023-02-21T03:59:47;3.85;;;3.55;;
2362;SDS011;64265;51.664;7.626;2023-02-21T04:02:14;4.25;;;3.95;;
2362;SDS011;64265;51.664;7.626;2023-02-21T04:04:41;4.60;;;4.20;;
2362;SDS011;64265;51.664;7.626;2023-02-21T04:07:08;4.45;;;4.05;;
2362;SDS011;64265;51.664;7.626;2023-02-21T04:09:36;4.70;;;4.40;;
2362;SDS011;64265;51.664;7.626;2023-02-21T04:12:03;4.35;;;3.95;;
2362;SDS011;64265;51.664;7.626;2023-02-21T04:14:32;3.80;;;3.50;;
2362;SDS011;64265;51.664;7.626;2023-02-21T04:16:59;4.32;;;4.03;;
2362;SDS011;64265;51.664;7.626;2023-02-21T04:19:25;4.40;;;4.10;;
2362;SDS011;64265;51.664;7.626;2023-02-21T04:21:52;3.97;;;3.70;;
2362;SDS011;64265;51.664;7.626;2023-02-21T04:24:19;4.32;;;3.92;;
2362;SDS011;64265;51.664;7.626;2023-02-21T04:26:46;4.10;;;3.80;;
2362;SDS011;64265;51.664;7.626;2023-02-21T04:29:12;4.40;;;4.10;;
2362;SDS011;64265;51.664;7.626;2023-02-21T04:31:40;4.03;;;3.72;;
2362;SDS011;64265;51.664;7.626;2023-02-21T04:34:07;4.45;;;4.15;;
2362;SDS011;64265;51.664;7.626;2023-02-21T04:36:34;4.05;;;3.75;;
2362;SDS011;64265;51.664;7.626;2023-02-21T04:39:02;4.72;;;4.32;;
2362;SDS011;64265;51.664;7.626;2023-02-21T04:41:29;5.10;;;4.63;;
2362;SDS011;64265;51.664;7.626;2023-02-21T04:43:55;3.72;;;3.42;;
2362;SDS011;64265;51.664;7.626;2023-02-21T04:46:22;4.72;;;4.40;;
2362;SDS011;64265;51.664;7.626;2023-02-21T04:48:50;4.20;;;3.80;;
2362;SDS011;64265;51.664;7.626;2023-02-21T04:51:18;4.35;;;4.05;;
2362;SDS011;64265;51.664;7.626;2023-02-21T04:53:47;4.30;;;4.00;;
2362;SDS011;64265;51.664;7.626;2023-02-21T04:56:16;3.88;;;3.58;;
2362;SDS011;64265;51.664;7.626;2023-02-21T04:58:45;4.43;;;4.13;;
2362;SDS011;64265;51.664;7.626;2023-02-21T05:01:12;3.72;;;3.50;;
2362;SDS011;64265;51.664;7.626;2023-02-21T05:03:39;4.05;;;3.75;;
2362;SDS011;64265;51.664;7.626;2023-02-21T05:06:07;4.05;;;3.75;;
2362;SDS011;64265;51.664;7.626;2023-02-21T05:08:34;4.18;;;3.88;;
2362;SDS011;64265;51.664;7.626;2023-02-21T05:11:01;4.10;;;3.80;;
2362;SDS011;64265;51.664;7.626;2023-02-21T05:13:28;4.75;;;4.35;;
2362;SDS011;64265;51.664;7.626;2023-02-21T05:15:55;4.65;;;4.25;;
2362;SDS011;64265;51.664;7.626;2023-02-21T05:18:22;4.10;;;3.80;;
2362;SDS011;64265;51.664;7.626;2023-02-21T05:20:52;4.00;;;3.70;;
2362;SDS011;64265;51.664;7.626;2023-02-21T05:23:20;4.10;;;3.80;;
2362;SDS011;64265;51.664;7.626;2023-02-21T05:25:57;3.40;;;3.10;;
2362;SDS011;64265;51.664;7.626;2023-02-21T05:28:24;4.53;;;4.15;;
2362;SDS011;64265;51.664;7.626;2023-02-21T05:30:51;4.43;;;4.13;;
2362;SDS011;64265;51.664;7.626;2023-02-21T05:33:18;4.53;;;4.22;;
2362;SDS011;64265;51.664;7.626;2023-02-21T05:35:45;3.88;;;3.58;;
2362;SDS011;64265;51.664;7.626;2023-02-21T05:38:12;3.50;;;3.20;;
2362;SDS011;64265;51.664;7.626;2023-02-21T05:40:40;3.55;;;3.33;;
2362;SDS011;64265;51.664;7.626;2023-02-21T05:43:07;4.22;;;3.92;;
2362;SDS011;64265;51.664;7.626;2023-02-21T05:45:34;3.65;;;3.45;;
2362;SDS011;64265;51.664;7.626;2023-02-21T05:48:00;4.10;;;3.85;;
2362;SDS011;64265;51.664;7.626;2023-02-21T05:50:28;4.20;;;3.92;;
2362;SDS011;64265;51.664;7.626;2023-02-21T05:52:55;4.22;;;3.83;;
2362;SDS011;64265;51.664;7.626;2023-02-21T05:55:22;4.10;;;3.80;;
2362;SDS011;64265;51.664;7.626;2023-02-21T05:57:50;4.18;;;3.35;;
2362;SDS011;64265;51.664;7.626;2023-02-21T06:00:18;3.83;;;3.53;;
2362;SDS011;64265;51.664;7.626;2023-02-21T06:02:48;4.60;;;4.20;;
2362;SDS011;64265;51.664;7.626;2023-02-21T06:05:14;4.35;;;3.95;;
2362;SDS011;64265;51.664;7.626;2023-02-21T06:07:42;3.80;;;3.50;;
2362;SDS011;64265;51.664;7.626;2023-02-21T06:10:09;4.28;;;3.95;;
2362;SDS011;64265;51.664;7.626;2023-02-21T06:12:35;4.78;;;4.47;;
2362;SDS011;64265;51.664;7.626;2023-02-21T06:15:04;3.65;;;3.40;;
2362;SDS011;64265;51.664;7.626;2023-02-21T06:17:31;4.00;;;3.65;;
2362;SDS011;64265;51.664;7.626;2023-02-21T06:19:58;3.85;;;3.55;;
2362;SDS011;64265;51.664;7.626;2023-02-21T06:22:25;4.10;;;3.80;;
2362;SDS011;64265;51.664;7.626;2023-02-21T06:24:51;4.00;;;3.60;;
2362;SDS011;64265;51.664;7.626;2023-02-21T06:27:18;3.30;;;3.00;;
2362;SDS011;64265;51.664;7.626;2023-02-21T06:29:45;3.72;;;3.47;;
2362;SDS011;64265;51.664;7.626;2023-02-21T06:32:13;3.72;;;3.47;;
2362;SDS011;64265;51.664;7.626;2023-02-21T06:34:39;3.55;;;3.35;;
2362;SDS011;64265;51.664;7.626;2023-02-21T06:37:08;3.40;;;3.17;;
2362;SDS011;64265;51.664;7.626;2023-02-21T06:39:36;3.50;;;3.20;;
2362;SDS011;64265;51.664;7.626;2023-02-21T06:42:03;3.70;;;3.40;;
2362;SDS011;64265;51.664;7.626;2023-02-21T06:44:30;3.65;;;3.35;;
2362;SDS011;64265;51.664;7.626;2023-02-21T06:46:57;3.72;;;3.42;;
2362;SDS011;64265;51.664;7.626;2023-02-21T06:49:25;3.30;;;3.00;;
2362;SDS011;64265;51.664;7.626;2023-02-21T06:51:52;3.42;;;3.22;;
2362;SDS011;64265;51.664;7.626;2023-02-21T06:54:18;2.85;;;2.65;;
2362;SDS011;64265;51.664;7.626;2023-02-21T06:56:45;4.30;;;3.90;;
2362;SDS011;64265;51.664;7.626;2023-02-21T06:59:12;4.30;;;3.45;;
2362;SDS011;64265;51.664;7.626;2023-02-21T07:01:39;3.30;;;3.10;;
2362;SDS011;64265;51.664;7.626;2023-02-21T07:04:06;3.78;;;3.47;;
2362;SDS011;64265;51.664;7.626;2023-02-21T07:06:34;3.53;;;3.33;;
2362;SDS011;64265;51.664;7.626;2023-02-21T07:09:00;3.10;;;2.80;;
2362;SDS011;64265;51.664;7.626;2023-02-21T07:11:27;3.58;;;3.28;;
2362;SDS011;64265;51.664;7.626;2023-02-21T07:13:56;3.25;;;3.00;;
2362;SDS011;64265;51.664;7.626;2023-02-21T07:16:23;3.40;;;3.17;;
2362;SDS011;64265;51.664;7.626;2023-02-21T07:18:50;3.38;;;3.08;;
2362;SDS011;64265;51.664;7.626;2023-02-21T07:21:17;3.45;;;3.15;;
2362;SDS011;64265;51.664;7.626;2023-02-21T07:23:47;3.22;;;2.92;;
2362;SDS011;64265;51.664;7.626;2023-02-21T07:26:14;2.95;;;2.75;;
2362;SDS011;64265;51.664;7.626;2023-02-21T07:28:41;3.28;;;3.03;;
2362;SDS011;64265;51.664;7.626;2023-02-21T07:31:08;2.83;;;2.63;;
2362;SDS011;64265;51.664;7.626;2023-02-21T07:33:35;2.80;;;2.60;;
2362;SDS011;64265;51.664;7.626;2023-02-21T07:36:02;3.08;;;2.78;;
2362;SDS011;64265;51.664;7.626;2023-02-21T07:38:30;2.53;;;2.33;;
2362;SDS011;64265;51.664;7.626;2023-02-21T07:40:59;3.30;;;3.10;;
2362;SDS011;64265;51.664;7.626;2023-02-21T07:43:26;2.80;;;2.60;;
2362;SDS011;64265;51.664;7.626;2023-02-21T07:45:54;2.67;;;2.47;;
2362;SDS011;64265;51.664;7.626;2023-02-21T07:48:21;2.90;;;2.70;;
2362;SDS011;64265;51.664;7.626;2023-02-21T07:50:48;3.05;;;2.85;;
2362;SDS011;64265;51.664;7.626;2023-02-21T07:53:15;2.53;;;2.33;;
2362;SDS011;64265;51.664;7.626;2023-02-21T07:55:42;3.53;;;3.22;;
2362;SDS011;64265;51.664;7.626;2023-02-21T07:58:10;3.03;;;2.83;;
2362;SDS011;64265;51.664;7.626;2023-02-21T08:00:37;3.05;;;2.80;;
2362;SDS011;64265;51.664;7.626;2023-02-21T08:03:04;2.88;;;2.67;;
2362;SDS011;64265;51.664;7.626;2023-02-21T08:05:30;2.92;;;2.70;;
2362;SDS011;64265;51.664;7.626;2023-02-21T08:07:57;2.85;;;2.65;;
2362;SDS011;64265;51.664;7.626;2023-02-21T08:10:24;3.45;;;3.17;;
2362;SDS011;64265;51.664;7.626;2023-02-21T08:12:52;2.85;;;2.65;;
2362;SDS011;64265;51.664;7.626;2023-02-21T08:15:20;3.50;;;2.63;;
2362;SDS011;64265;51.664;7.626;2023-02-21T08:17:47;2.95;;;2.75;;
2362;SDS011;64265;51.664;7.626;2023-02-21T08:20:14;3.13;;;2.92;;
2362;SDS011;64265;51.664;7.626;2023-02-21T08:22:41;2.80;;;2.60;;
2362;SDS011;64265;51.664;7.626;2023-02-21T08:25:08;2.70;;;2.47;;
2362;SDS011;64265;51.664;7.626;2023-02-21T08:27:37;2.70;;;2.50;;
2362;SDS011;64265;51.664;7.626;2023-02-21T08:30:04;3.17;;;2.97;;
2362;SDS011;64265;51.664;7.626;2023-02-21T08:32:34;2.60;;;2.40;;
2362;SDS011;64265;51.664;7.626;2023-02-21T08:35:01;2.75;;;2.55;;
2362;SDS011;64265;51.664;7.626;2023-02-21T08:37:30;4.28;;;3.95;;
2362;SDS011;64265;51.664;7.626;2023-02-21T08:40:00;3.90;;;3.60;;
2362;SDS011;64265;51.664;7.626;2023-02-21T08:42:27;4.70;;;2.85;;
2362;SDS011;64265;51.664;7.626;2023-02-21T08:44:54;3.42;;;3.00;;
2362;SDS011;64265;51.664;7.626;2023-02-21T08:47:21;3.30;;;3.10;;
2362;SDS011;64265;51.664;7.626;2023-02-21T08:49:49;3.70;;;3.40;;
2362;SDS011;64265;51.664;7.626;2023-02-21T08:52:17;3.50;;;3.30;;
2362;SDS011;64265;51.664;7.626;2023-02-21T08:54:45;3.60;;;3.30;;
2362;SDS011;64265;51.664;7.626;2023-02-21T08:57:12;3.60;;;3.30;;
2362;SDS011;64265;51.664;7.626;2023-02-21T08:59:39;3.50;;;3.30;;
2362;SDS011;64265;51.664;7.626;2023-02-21T09:02:08;4.20;;;3.80;;
2362;SDS011;64265;51.664;7.626;2023-02-21T09:04:40;3.65;;;3.35;;
2362;SDS011;64265;51.664;7.626;2023-02-21T09:07:08;3.60;;;3.30;;
2362;SDS011;64265;51.664;7.626;2023-02-21T09:09:37;4.57;;;4.18;;
2362;SDS011;64265;51.664;7.626;2023-02-21T09:12:04;3.65;;;3.42;;
2362;SDS011;64265;51.664;7.626;2023-02-21T09:14:32;3.45;;;3.15;;
2362;SDS011;64265;51.664;7.626;2023-02-21T09:16:59;3.08;;;2.78;;
2362;SDS011;64265;51.664;7.626;2023-02-21T09:19:26;6.63;;;3.67;;
2362;SDS011;64265;51.664;7.626;2023-02-21T09:21:52;3.15;;;2.90;;
2362;SDS011;64265;51.664;7.626;2023-02-21T09:24:22;11.55;;;3.80;;
2362;SDS011;64265;51.664;7.626;2023-02-21T09:26:50;5.32;;;3.75;;
2362;SDS011;64265;51.664;7.626;2023-02-21T09:29:18;4.07;;;3.65;;
2362;SDS011;64265;51.664;7.626;2023-02-21T09:31:45;4.07;;;3.38;;
2362;SDS011;64265;51.664;7.626;2023-02-21T09:34:12;3.95;;;3.65;;
2362;SDS011;64265;51.664;7.626;2023-02-21T09:36:39;4.28;;;3.15;;
2362;SDS011;64265;51.664;7.626;2023-02-21T09:39:05;3.45;;;2.95;;
2362;SDS011;64265;51.664;7.626;2023-02-21T09:41:34;3.55;;;3.25;;
2362;SDS011;64265;51.664;7.626;2023-02-21T09:44:03;4.20;;;3.90;;
2362;SDS011;64265;51.664;7.626;2023-02-21T09:46:33;3.58;;;3.28;;
2362;SDS011;64265;51.664;7.626;2023-02-21T09:49:04;3.78;;;3.47;;
2362;SDS011;64265;51.664;7.626;2023-02-21T09:51:37;4.50;;;4.10;;
2362;SDS011;64265;51.664;7.626;2023-02-21T09:54:10;3.97;;;3.67;;
2362;SDS011;64265;51.664;7.626;2023-02-21T09:56:44;5.00;;;4.60;;
2362;SDS011;64265;51.664;7.626;2023-02-21T09:59:11;5.55;;;5.05;;
2362;SDS011;64265;51.664;7.626;2023-02-21T10:01:44;4.10;;;3.70;;
2362;SDS011;64265;51.664;7.626;2023-02-21T10:04:20;4.45;;;4.05;;
2362;SDS011;64265;51.664;7.626;2023-02-21T10:06:59;3.88;;;3.47;;
2362;SDS011;64265;51.664;7.626;2023-02-21T10:09:35;11.35;;;4.55;;
2362;SDS011;64265;51.664;7.626;2023-02-21T10:12:09;4.28;;;3.85;;
2362;SDS011;64265;51.664;7.626;2023-02-21T10:15:00;4.68;;;4.28;;
2362;SDS011;64265;51.664;7.626;2023-02-21T10:17:40;5.07;;;4.13;;
2362;SDS011;64265;51.664;7.626;2023-02-21T10:20:12;4.80;;;4.10;;
2362;SDS011;64265;51.664;7.626;2023-02-21T10:22:41;3.75;;;3.45;;
2362;SDS011;64265;51.664;7.626;2023-02-21T10:25:17;4.15;;;3.75;;
2362;SDS011;64265;51.664;7.626;2023-02-21T10:27:48;3.75;;;3.33;;
2362;SDS011;64265;51.664;7.626;2023-02-21T10:30:19;4.55;;;4.00;;
2362;SDS011;64265;51.664;7.626;2023-02-21T10:32:59;4.72;;;3.28;;
2362;SDS011;64265;51.664;7.626;2023-02-21T10:35:30;4.75;;;4.20;;
2362;SDS011;64265;51.664;7.626;2023-02-21T10:37:59;3.70;;;3.30;;
2362;SDS011;64265;51.664;7.626;2023-02-21T10:40:29;3.97;;;3.67;;
2362;SDS011;64265;51.664;7.626;2023-02-21T10:43:06;3.58;;;3.28;;
2362;SDS011;64265;51.664;7.626;2023-02-21T10:45:37;4.28;;;3.88;;
2362;SDS011;64265;51.664;7.626;2023-02-21T10:48:08;4.13;;;3.73;;
2362;SDS011;64265;51.664;7.626;2023-02-21T10:50:40;4.32;;;3.95;;
2362;SDS011;64265;51.664;7.626;2023-02-21T10:53:21;4.22;;;3.83;;
2362;SDS011;64265;51.664;7.626;2023-02-21T10:58:54;3.90;;;3.60;;
2362;SDS011;64265;51.664;7.626;2023-02-21T11:01:29;4.40;;;4.00;;
2362;SDS011;64265;51.664;7.626;2023-02-21T11:04:00;4.28;;;3.97;;
2362;SDS011;64265;51.664;7.626;2023-02-21T11:06:31;3.90;;;3.43;;
2362;SDS011;64265;51.664;7.626;2023-02-21T11:09:01;4.25;;;3.85;;
2362;SDS011;64265;51.664;7.626;2023-02-21T11:11:48;4.00;;;3.63;;
2362;SDS011;64265;51.664;7.626;2023-02-21T11:14:27;4.32;;;3.92;;
2362;SDS011;64265;51.664;7.626;2023-02-21T11:17:10;4.72;;;4.32;;
2362;SDS011;64265;51.664;7.626;2023-02-21T11:19:46;3.90;;;3.50;;
2362;SDS011;64265;51.664;7.626;2023-02-21T11:22:15;5.38;;;4.93;;
2362;SDS011;64265;51.664;7.626;2023-02-21T11:24:50;5.65;;;5.18;;
2362;SDS011;64265;51.664;7.626;2023-02-21T11:27:20;6.35;;;5.80;;
2362;SDS011;64265;51.664;7.626;2023-02-21T11:29:49;5.47;;;4.78;;
2362;SDS011;64265;51.664;7.626;2023-02-21T11:32:20;6.78;;;6.07;;
2362;SDS011;64265;51.664;7.626;2023-02-21T11:34:51;6.72;;;5.47;;
2362;SDS011;64265;51.664;7.626;2023-02-21T11:37:26;7.97;;;5.17;;
2362;SDS011;64265;51.664;7.626;2023-02-21T11:39:54;7.55;;;5.32;;
2362;SDS011;64265;51.664;7.626;2023-02-21T11:42:25;7.70;;;5.90;;
2362;SDS011;64265;51.664;7.626;2023-02-21T11:45:11;5.10;;;4.60;;
2362;SDS011;64265;51.664;7.626;2023-02-21T11:47:44;8.35;;;5.90;;
2362;SDS011;64265;51.664;7.626;2023-02-21T11:52:50;7.20;;;5.43;;
2362;SDS011;64265;51.664;7.626;2023-02-21T11:55:22;5.85;;;4.65;;
2362;SDS011;64265;51.664;7.626;2023-02-21T11:57:52;5.38;;;4.57;;
2362;SDS011;64265;51.664;7.626;2023-02-21T12:00:28;6.25;;;5.07;;
2362;SDS011;64265;51.664;7.626;2023-02-21T12:03:05;5.50;;;5.00;;
2362;SDS011;64265;51.664;7.626;2023-02-21T12:05:54;4.57;;;4.10;;
2362;SDS011;64265;51.664;7.626;2023-02-21T12:08:32;6.47;;;5.80;;
2362;SDS011;64265;51.664;7.626;2023-02-21T12:14:11;11.50;;;7.53;;
2362;SDS011;64265;51.664;7.626;2023-02-21T12:16:58;14.20;;;6.20;;
2362;SDS011;64265;51.664;7.626;2023-02-21T12:19:45;20.55;;;6.97;;
2362;SDS011;64265;51.664;7.626;2023-02-21T12:22:30;7.75;;;6.18;;
2362;SDS011;64265;51.664;7.626;2023-02-21T12:25:10;6.22;;;5.63;;
2362;SDS011;64265;51.664;7.626;2023-02-21T12:27:46;9.38;;;6.65;;
2362;SDS011;64265;51.664;7.626;2023-02-21T12:30:24;8.02;;;5.28;;
2362;SDS011;64265;51.664;7.626;2023-02-21T12:33:05;6.57;;;5.20;;
2362;SDS011;64265;51.664;7.626;2023-02-21T12:39:17;13.63;;;5.47;;
2362;SDS011;64265;51.664;7.626;2023-02-21T12:41:59;8.82;;;5.75;;
2362;SDS011;64265;51.664;7.626;2023-02-21T12:44:41;7.03;;;6.10;;
2362;SDS011;64265;51.664;7.626;2023-02-21T12:47:17;8.13;;;6.20;;
2362;SDS011;64265;51.664;7.626;2023-02-21T12:49:51;9.27;;;5.23;;
2362;SDS011;64265;51.664;7.626;2023-02-21T12:52:25;8.65;;;5.60;;
2362;SDS011;64265;51.664;7.626;2023-02-21T12:54:57;6.65;;;5.57;;
2362;SDS011;64265;51.664;7.626;2023-02-21T12:57:29;5.20;;;4.80;;
2362;SDS011;64265;51.664;7.626;2023-02-21T13:00:02;5.30;;;4.80;;
2362;SDS011;64265;51.664;7.626;2023-02-21T13:02:42;6.28;;;5.68;;
2362;SDS011;64265;51.664;7.626;2023-02-21T13:05:18;4.97;;;4.47;;
2362;SDS011;64265;51.664;7.626;2023-02-21T13:07:49;6.77;;;4.80;;
2362;SDS011;64265;51.664;7.626;2023-02-21T13:10:22;8.50;;;5.43;;
2362;SDS011;64265;51.664;7.626;2023-02-21T13:12:53;5.67;;;5.17;;
2362;SDS011;64265;51.664;7.626;2023-02-21T13:15:24;5.78;;;5.18;;
2362;SDS011;64265;51.664;7.626;2023-02-21T13:17:54;5.93;;;5.03;;
2362;SDS011;64265;51.664;7.626;2023-02-21T13:20:27;5.88;;;5.38;;
2362;SDS011;64265;51.664;7.626;2023-02-21T13:26:25;7.57;;;5.68;;
2362;SDS011;64265;51.664;7.626;2023-02-21T13:29:03;5.50;;;5.00;;
2362;SDS011;64265;51.664;7.626;2023-02-21T13:31:38;5.63;;;4.40;;
2362;SDS011;64265;51.664;7.626;2023-02-21T13:34:10;6.13;;;4.57;;
2362;SDS011;64265;51.664;7.626;2023-02-21T13:36:41;6.43;;;5.83;;
2362;SDS011;64265;51.664;7.626;2023-02-21T13:39:10;6.00;;;4.90;;
2362;SDS011;64265;51.664;7.626;2023-02-21T13:41:40;5.90;;;5.10;;
2362;SDS011;64265;51.664;7.626;2023-02-21T13:44:09;5.40;;;4.90;;
2362;SDS011;64265;51.664;7.626;2023-02-21T13:47:01;5.90;;;5.40;;
2362;SDS011;64265;51.664;7.626;2023-02-21T13:49:44;5.60;;;4.90;;
2362;SDS011;64265;51.664;7.626;2023-02-21T13:55:27;5.03;;;4.63;;
2362;SDS011;64265;51.664;7.626;2023-02-21T13:58:23;5.10;;;4.47;;
2362;SDS011;64265;51.664;7.626;2023-02-21T14:01:12;4.27;;;3.87;;
2362;SDS011;64265;51.664;7.626;2023-02-21T14:03:46;9.10;;;8.20;;
2362;SDS011;64265;51.664;7.626;2023-02-21T14:06:23;10.52;;;9.52;;
2362;SDS011;64265;51.664;7.626;2023-02-21T14:08:58;11.48;;;9.88;;
2362;SDS011;64265;51.664;7.626;2023-02-21T14:11:29;10.23;;;8.82;;
2362;SDS011;64265;51.664;7.626;2023-02-21T14:14:02;11.50;;;10.40;;
2362;SDS011;64265;51.664;7.626;2023-02-21T14:16:32;12.40;;;10.83;;
2362;SDS011;64265;51.664;7.626;2023-02-21T14:19:01;11.95;;;10.73;;
2362;SDS011;64265;51.664;7.626;2023-02-21T14:21:33;11.88;;;10.77;;
2362;SDS011;64265;51.664;7.626;2023-02-21T14:24:04;12.13;;;11.05;;
2362;SDS011;64265;51.664;7.626;2023-02-21T14:26:38;14.27;;;12.93;;
2362;SDS011;64265;51.664;7.626;2023-02-21T14:29:15;10.75;;;9.60;;
2362;SDS011;64265;51.664;7.626;2023-02-21T14:34:49;8.02;;;7.22;;
2362;SDS011;64265;51.664;7.626;2023-02-21T14:37:21;7.07;;;6.38;;
2362;SDS011;64265;51.664;7.626;2023-02-21T14:39:53;6.18;;;5.60;;
2362;SDS011;64265;51.664;7.626;2023-02-21T14:42:26;7.00;;;5.97;;
2362;SDS011;64265;51.664;7.626;2023-02-21T14:45:06;6.55;;;5.88;;
2362;SDS011;64265;51.664;7.626;2023-02-21T14:50:37;6.82;;;6.18;;
2362;SDS011;64265;51.664;7.626;2023-02-21T14:53:39;6.67;;;5.83;;
2362;SDS011;64265;51.664;7.626;2023-02-21T14:56:46;6.90;;;6.30;;
2362;SDS011;64265;51.664;7.626;2023-02-21T14:59:31;7.37;;;5.60;;
2362;SDS011;64265;51.664;7.626;2023-02-21T15:02:32;7.30;;;5.23;;
2362;SDS011;64265;51.664;7.626;2023-02-21T15:05:06;5.70;;;5.20;;
2362;SDS011;64265;51.664;7.626;2023-02-21T15:07:42;4.83;;;4.33;;
2362;SDS011;64265;51.664;7.626;2023-02-21T15:10:23;5.20;;;4.70;;
2362;SDS011;64265;51.664;7.626;2023-02-21T15:12:53;5.13;;;4.63;;
2362;SDS011;64265;51.664;7.626;2023-02-21T15:15:22;6.23;;;5.53;;
2362;SDS011;64265;51.664;7.626;2023-02-21T15:17:55;6.40;;;4.80;;
2362;SDS011;64265;51.664;7.626;2023-02-21T15:20:24;5.10;;;4.60;;
2362;SDS011;64265;51.664;7.626;2023-02-21T15:22:54;4.90;;;4.50;;
2362;SDS011;64265;51.664;7.626;2023-02-21T15:25:22;4.20;;;3.90;;
2362;SDS011;64265;51.664;7.626;2023-02-21T15:27:58;5.20;;;4.73;;
2362;SDS011;64265;51.664;7.626;2023-02-21T15:30:34;5.03;;;4.53;;
2362;SDS011;64265;51.664;7.626;2023-02-21T15:33:05;4.57;;;4.17;;
2362;SDS011;64265;51.664;7.626;2023-02-21T15:35:38;5.20;;;4.70;;
2362;SDS011;64265;51.664;7.626;2023-02-21T15:38:09;5.53;;;4.87;;
2362;SDS011;64265;51.664;7.626;2023-02-21T15:40:41;5.20;;;4.70;;
2362;SDS011;64265;51.664;7.626;2023-02-21T15:43:10;4.53;;;4.13;;
2362;SDS011;64265;51.664;7.626;2023-02-21T15:45:52;5.37;;;4.87;;
2362;SDS011;64265;51.664;7.626;2023-02-21T15:48:20;4.97;;;4.53;;
2362;SDS011;64265;51.664;7.626;2023-02-21T15:50:48;4.60;;;4.20;;
2362;SDS011;64265;51.664;7.626;2023-02-21T15:53:16;4.30;;;4.00;;
2362;SDS011;64265;51.664;7.626;2023-02-21T15:55:44;4.80;;;4.00;;
2362;SDS011;64265;51.664;7.626;2023-02-21T15:58:15;5.05;;;4.65;;
2362;SDS011;64265;51.664;7.626;2023-02-21T16:00:45;4.88;;;4.43;;
2362;SDS011;64265;51.664;7.626;2023-02-21T16:03:25;4.10;;;3.70;;
2362;SDS011;64265;51.664;7.626;2023-02-21T16:05:53;4.30;;;3.90;;
2362;SDS011;64265;51.664;7.626;2023-02-21T16:08:21;6.23;;;4.77;;
2362;SDS011;64265;51.664;7.626;2023-02-21T16:10:47;6.17;;;3.83;;